createdAt,value
2022-12-12T00:01:23.383Z,19.87
2022-12-12T00:03:51.499Z,18.30
2022-12-12T00:06:20.276Z,16.23
2022-12-12T00:08:48.545Z,17.03
2022-12-12T00:11:17.282Z,16.50
2022-12-12T00:13:45.584Z,16.57
2022-12-12T00:16:15.002Z,16.93
2022-12-12T00:18:43.058Z,16.33
2022-12-12T00:21:16.051Z,14.93
2022-12-12T00:23:44.687Z,16.07
2022-12-12T00:26:18.749Z,15.87
2022-12-12T00:28:47.216Z,17.83
2022-12-12T00:31:17.553Z,19.80
2022-12-12T00:33:47.942Z,23.83
2022-12-12T00:36:16.273Z,21.20
2022-12-12T00:38:44.348Z,17.70
2022-12-12T00:41:12.904Z,15.40
2022-12-12T00:43:40.998Z,17.90
2022-12-12T00:46:09.433Z,15.97
2022-12-12T00:48:38.809Z,17.47
2022-12-12T00:51:09.457Z,16.70
2022-12-12T00:53:38.295Z,17.10
2022-12-12T00:56:07.592Z,16.50
2022-12-12T00:58:35.953Z,17.37
2022-12-12T01:01:10.592Z,16.00
2022-12-12T01:03:42.892Z,15.60
2022-12-12T01:06:11.443Z,16.23
2022-12-12T01:08:39.635Z,16.83
2022-12-12T01:11:10.218Z,16.50
2022-12-12T01:13:38.496Z,17.30
2022-12-12T01:16:07.659Z,16.10
2022-12-12T01:18:35.974Z,16.10
2022-12-12T01:21:08.356Z,17.47
2022-12-12T01:23:36.557Z,14.50
2022-12-12T01:26:06.859Z,13.80
2022-12-12T01:28:35.192Z,14.43
2022-12-12T01:31:03.444Z,14.60
2022-12-12T01:33:31.532Z,14.73
2022-12-12T01:35:59.835Z,13.57
2022-12-12T01:38:29.286Z,15.73
2022-12-12T01:40:57.321Z,15.30
2022-12-12T01:43:26.420Z,15.07
2022-12-12T01:46:30.367Z,14.27
2022-12-12T01:49:01.726Z,15.30
2022-12-12T01:51:31.005Z,15.63
2022-12-12T01:54:04.652Z,14.10
2022-12-12T01:56:33.568Z,15.30
2022-12-12T01:59:04.757Z,16.77
2022-12-12T02:01:33.209Z,14.80
2022-12-12T02:04:03.062Z,14.57
2022-12-12T02:06:31.811Z,14.13
2022-12-12T02:09:04.091Z,15.00
2022-12-12T02:11:34.254Z,14.83
2022-12-12T02:14:02.497Z,14.70
2022-12-12T02:16:44.597Z,15.33
2022-12-12T02:19:36.890Z,14.57
2022-12-12T02:22:09.050Z,14.27
2022-12-12T02:25:08.847Z,14.27
2022-12-12T02:28:26.051Z,17.00
2022-12-12T02:31:11.763Z,15.07
2022-12-12T02:33:46.246Z,15.30
2022-12-12T02:36:20.623Z,15.83
2022-12-12T02:38:55.820Z,15.90
2022-12-12T02:41:29.945Z,14.90
2022-12-12T02:44:14.785Z,14.70
2022-12-12T02:46:56.990Z,14.20
2022-12-12T02:49:29.826Z,14.47
2022-12-12T02:51:59.456Z,16.53
2022-12-12T02:54:27.471Z,12.93
2022-12-12T02:56:57.194Z,14.83
2022-12-12T02:59:32.180Z,15.20
2022-12-12T03:02:38.880Z,14.40
2022-12-12T03:05:38.310Z,14.80
2022-12-12T03:08:17.200Z,14.03
2022-12-12T03:10:54.190Z,14.53
2022-12-12T03:13:32.358Z,14.30
2022-12-12T03:16:11.760Z,14.93
2022-12-12T03:18:47.164Z,14.80
2022-12-12T03:21:20.424Z,14.37
2022-12-12T03:23:54.310Z,15.70
2022-12-12T03:26:27.484Z,14.77
2022-12-12T03:29:00.269Z,15.23
2022-12-12T03:31:32.096Z,16.27
2022-12-12T03:34:06.009Z,16.37
2022-12-12T03:36:38.804Z,13.43
2022-12-12T03:39:13.404Z,14.10
2022-12-12T03:41:44.399Z,13.70
2022-12-12T03:44:17.830Z,14.17
2022-12-12T03:46:52.955Z,15.10
2022-12-12T03:49:27.756Z,14.30
2022-12-12T03:52:01.636Z,17.50
2022-12-12T03:54:35.086Z,13.47
2022-12-12T03:57:07.299Z,14.40
2022-12-12T03:59:38.927Z,14.33
2022-12-12T04:02:12.962Z,14.07
2022-12-12T04:04:50.994Z,15.43
2022-12-12T04:07:23.489Z,14.13
2022-12-12T04:10:09.225Z,14.97
2022-12-12T04:13:03.405Z,13.53
2022-12-12T04:15:56.479Z,13.33
2022-12-12T04:18:34.217Z,14.40
2022-12-12T04:21:34.100Z,15.07
2022-12-12T04:24:07.783Z,13.53
2022-12-12T04:26:42.477Z,12.97
2022-12-12T04:29:23.345Z,13.57
2022-12-12T04:31:56.501Z,14.77
2022-12-12T04:34:30.607Z,14.10
2022-12-12T04:37:01.475Z,14.70
2022-12-12T04:39:31.516Z,15.17
2022-12-12T04:42:02.381Z,14.60
2022-12-12T04:44:33.139Z,14.47
2022-12-12T04:47:04.089Z,15.00
2022-12-12T04:49:34.471Z,14.87
2022-12-12T04:52:07.282Z,14.30
2022-12-12T04:54:42.130Z,14.10
2022-12-12T04:57:14.276Z,14.50
2022-12-12T04:59:42.447Z,14.10
2022-12-12T05:02:18.216Z,14.57
2022-12-12T05:04:51.911Z,16.03
2022-12-12T05:07:29.181Z,15.13
2022-12-12T05:09:59.421Z,14.00
2022-12-12T05:12:27.630Z,13.67
2022-12-12T05:14:55.714Z,14.87
2022-12-12T05:17:31.997Z,14.60
2022-12-12T05:20:00.135Z,15.07
2022-12-12T05:22:29.928Z,15.13
2022-12-12T05:24:57.918Z,13.50
2022-12-12T05:27:25.917Z,14.33
2022-12-12T05:29:53.911Z,14.33
2022-12-12T05:32:21.900Z,14.60
2022-12-12T05:34:49.943Z,15.87
2022-12-12T05:37:17.943Z,15.40
2022-12-12T05:39:47.422Z,15.50
2022-12-12T05:42:15.462Z,14.10
2022-12-12T05:44:43.446Z,14.90
2022-12-12T05:47:11.446Z,15.47
2022-12-12T05:49:39.426Z,14.70
2022-12-12T05:52:07.539Z,14.33
2022-12-12T05:54:35.539Z,15.17
2022-12-12T05:57:05.321Z,15.33
2022-12-12T05:59:33.424Z,15.90
2022-12-12T06:02:01.643Z,15.53
2022-12-12T06:04:29.840Z,15.73
2022-12-12T06:06:57.892Z,14.20
2022-12-12T06:09:26.023Z,16.20
2022-12-12T06:11:54.927Z,15.23
2022-12-12T06:14:24.470Z,15.97
2022-12-12T06:16:52.503Z,15.97
2022-12-12T06:19:21.125Z,15.43
2022-12-12T06:21:49.252Z,16.10
2022-12-12T06:24:17.305Z,15.70
2022-12-12T06:26:45.784Z,16.10
2022-12-12T06:29:14.777Z,15.70
2022-12-12T06:31:44.211Z,15.80
2022-12-12T06:34:12.237Z,18.10
2022-12-12T06:36:40.399Z,15.70
2022-12-12T06:39:09.627Z,16.57
2022-12-12T06:41:37.814Z,15.90
2022-12-12T06:44:06.238Z,17.13
2022-12-12T06:46:34.321Z,18.00
2022-12-12T06:49:09.475Z,15.50
2022-12-12T06:51:43.882Z,14.00
2022-12-12T06:54:12.536Z,13.83
2022-12-12T06:56:46.237Z,14.47
2022-12-12T06:59:16.763Z,14.77
2022-12-12T07:01:45.195Z,15.03
2022-12-12T07:04:15.601Z,14.47
2022-12-12T07:06:43.843Z,15.80
2022-12-12T07:09:12.015Z,16.90
2022-12-12T07:11:42.013Z,16.63
2022-12-12T07:14:11.895Z,16.23
2022-12-12T07:16:39.916Z,14.90
2022-12-12T07:19:08.348Z,15.70
2022-12-12T07:21:37.706Z,15.67
2022-12-12T07:24:06.125Z,16.63
2022-12-12T07:26:34.222Z,14.87
2022-12-12T07:29:05.234Z,15.37
2022-12-12T07:31:33.599Z,15.07
2022-12-12T07:34:01.664Z,15.13
2022-12-12T07:36:29.713Z,16.50
2022-12-12T07:38:59.068Z,15.90
2022-12-12T07:41:27.052Z,14.60
2022-12-12T07:43:55.154Z,15.33
2022-12-12T07:46:25.942Z,18.20
2022-12-12T07:48:54.881Z,17.20
2022-12-12T07:51:23.796Z,18.73
2022-12-12T07:53:51.872Z,15.03
2022-12-12T07:56:21.790Z,16.80
2022-12-12T07:58:51.093Z,16.00
2022-12-12T08:01:21.111Z,15.20
2022-12-12T08:03:50.220Z,17.60
2022-12-12T08:06:19.364Z,15.27
2022-12-12T08:08:48.751Z,15.00
2022-12-12T08:11:18.812Z,15.80
2022-12-12T08:13:48.291Z,14.10
2022-12-12T08:16:18.421Z,15.30
2022-12-12T08:18:46.811Z,14.23
2022-12-12T08:21:24.521Z,15.63
2022-12-12T08:23:57.056Z,16.13
2022-12-12T08:26:25.890Z,17.50
2022-12-12T08:28:55.396Z,16.50
2022-12-12T08:31:23.663Z,17.23
2022-12-12T08:33:52.919Z,16.83
2022-12-12T08:36:23.230Z,22.53
2022-12-12T08:38:51.658Z,20.17
2022-12-12T08:41:20.761Z,17.70
2022-12-12T08:43:49.093Z,17.23
2022-12-12T08:46:20.287Z,17.93
2022-12-12T08:48:48.929Z,16.87
2022-12-12T08:51:17.909Z,17.37
2022-12-12T08:53:46.611Z,17.47
2022-12-12T08:56:15.187Z,18.90
2022-12-12T08:58:43.718Z,18.63
2022-12-12T09:01:12.417Z,18.10
2022-12-12T09:03:41.795Z,17.93
2022-12-12T09:06:10.615Z,18.80
2022-12-12T09:08:39.080Z,19.77
2022-12-12T09:11:07.345Z,19.90
2022-12-12T09:13:35.817Z,18.60
2022-12-12T09:16:04.399Z,19.27
2022-12-12T09:18:32.616Z,19.67
2022-12-12T09:21:02.420Z,20.30
2022-12-12T09:23:31.011Z,21.37
2022-12-12T09:25:59.495Z,21.10
2022-12-12T09:28:27.729Z,21.03
2022-12-12T09:30:55.826Z,20.13
2022-12-12T09:33:23.935Z,17.30
2022-12-12T09:35:58.457Z,18.27
2022-12-12T09:38:28.314Z,16.93
2022-12-12T09:40:58.780Z,17.60
2022-12-12T09:43:30.518Z,17.77
2022-12-12T09:46:01.024Z,17.30
2022-12-12T09:48:36.570Z,18.23
2022-12-12T09:51:04.952Z,17.97
2022-12-12T09:53:34.695Z,16.00
2022-12-12T09:56:09.053Z,17.27
2022-12-12T09:58:46.864Z,15.20
2022-12-12T10:01:26.680Z,14.90
2022-12-12T10:04:06.085Z,15.80
2022-12-12T10:06:41.239Z,17.63
2022-12-12T10:09:35.544Z,14.53
2022-12-12T10:12:08.366Z,17.40
2022-12-12T10:14:41.806Z,16.80
2022-12-12T10:17:15.902Z,18.87
2022-12-12T10:19:50.233Z,17.73
2022-12-12T10:22:26.724Z,18.10
2022-12-12T10:25:03.617Z,17.40
2022-12-12T10:27:31.736Z,17.90
2022-12-12T10:30:08.008Z,17.50
2022-12-12T10:32:46.516Z,19.30
2022-12-12T10:35:26.350Z,17.50
2022-12-12T10:38:08.011Z,18.07
2022-12-12T10:40:49.277Z,17.43
2022-12-12T10:43:23.272Z,17.83
2022-12-12T10:46:23.349Z,17.07
2022-12-12T10:48:52.378Z,14.63
2022-12-12T10:51:23.797Z,15.00
2022-12-12T10:53:51.792Z,14.57
2022-12-12T10:56:24.552Z,14.30
2022-12-12T10:58:57.349Z,13.73
2022-12-12T11:02:00.627Z,15.37
2022-12-12T11:04:17.421Z,14.00
2022-12-12T11:06:49.195Z,13.73
2022-12-12T11:09:20.284Z,13.10
2022-12-12T11:12:00.585Z,15.20
2022-12-12T11:14:34.004Z,13.80
2022-12-12T11:17:02.104Z,13.10
2022-12-12T11:19:38.326Z,13.03
2022-12-12T11:22:06.654Z,16.00
2022-12-12T11:24:37.277Z,16.23
2022-12-12T11:27:08.464Z,18.10
2022-12-12T11:29:44.386Z,16.43
2022-12-12T11:32:15.431Z,14.50
2022-12-12T11:34:47.496Z,16.37
2022-12-12T11:37:18.034Z,17.00
2022-12-12T11:39:47.732Z,16.80
2022-12-12T11:42:22.636Z,20.27
2022-12-12T11:45:00.429Z,16.23
2022-12-12T11:47:30.520Z,17.60
2022-12-12T11:50:02.046Z,18.20
2022-12-12T11:52:34.786Z,15.60
2022-12-12T11:55:02.886Z,16.10
2022-12-12T11:57:51.021Z,15.03
2022-12-12T12:00:21.842Z,15.67
2022-12-12T12:03:21.355Z,16.77
2022-12-12T12:06:02.916Z,18.20
2022-12-12T12:08:45.073Z,15.50
2022-12-12T12:11:20.887Z,16.13
2022-12-12T12:14:05.797Z,18.80
2022-12-12T12:16:44.916Z,16.20
2022-12-12T12:19:19.554Z,16.00
2022-12-12T12:22:01.320Z,15.90
2022-12-12T12:24:40.437Z,15.80
2022-12-12T12:27:18.034Z,16.83
2022-12-12T12:30:08.654Z,16.00
2022-12-12T12:32:49.730Z,16.67
2022-12-12T12:35:28.791Z,17.20
2022-12-12T12:38:07.406Z,15.47
2022-12-12T12:40:49.982Z,17.45
2022-12-12T12:43:31.068Z,16.93
2022-12-12T12:46:08.194Z,17.30
2022-12-12T12:48:41.660Z,16.70
2022-12-12T12:51:16.304Z,16.50
2022-12-12T12:53:50.050Z,17.43
2022-12-12T12:56:26.598Z,16.07
2022-12-12T12:58:59.057Z,16.50
2022-12-12T13:01:37.689Z,17.50
2022-12-12T13:04:13.207Z,16.23
2022-12-12T13:06:45.581Z,13.67
2022-12-12T13:09:25.171Z,16.30
2022-12-12T13:12:00.617Z,15.50
2022-12-12T13:14:38.839Z,15.27
2022-12-12T13:17:16.373Z,15.17
2022-12-12T13:19:46.646Z,14.50
2022-12-12T13:22:18.851Z,15.50
2022-12-12T13:24:59.671Z,13.67
2022-12-12T13:27:34.882Z,13.93
2022-12-12T13:30:07.581Z,14.10
2022-12-12T13:33:00.209Z,13.77
2022-12-12T13:35:32.762Z,14.97
2022-12-12T13:38:01.225Z,14.43
2022-12-12T13:40:31.323Z,15.20
2022-12-12T13:43:09.067Z,13.83
2022-12-12T13:45:44.844Z,14.43
2022-12-12T13:48:51.626Z,14.17
2022-12-12T13:51:38.693Z,15.37
2022-12-12T13:54:53.201Z,16.10
2022-12-12T13:57:33.411Z,15.00
2022-12-12T14:00:22.514Z,14.90
2022-12-12T14:03:01.486Z,14.97
2022-12-12T14:05:32.681Z,16.67
2022-12-12T14:08:07.346Z,15.67
2022-12-12T14:10:38.022Z,17.03
2022-12-12T14:13:27.164Z,17.03
2022-12-12T14:16:04.408Z,15.30
2022-12-12T14:18:36.442Z,14.37
2022-12-12T14:21:07.771Z,15.47
2022-12-12T14:23:38.431Z,16.17
2022-12-12T14:26:41.795Z,14.40
2022-12-12T14:29:28.731Z,15.63
2022-12-12T14:32:13.164Z,14.73
2022-12-12T14:34:51.593Z,14.20
2022-12-12T14:37:39.809Z,13.67
2022-12-12T14:40:19.661Z,14.67
2022-12-12T14:43:21.185Z,14.30
2022-12-12T14:45:54.287Z,14.00
2022-12-12T14:48:25.437Z,13.70
2022-12-12T14:51:04.784Z,13.80
2022-12-12T14:53:40.221Z,14.90
2022-12-12T14:56:13.102Z,13.80
2022-12-12T14:58:43.806Z,15.37
2022-12-12T15:01:12.600Z,13.77
2022-12-12T15:03:45.462Z,14.23
2022-12-12T15:06:32.183Z,12.50
2022-12-12T15:09:10.930Z,13.20
2022-12-12T15:11:40.665Z,13.17
2022-12-12T15:14:19.201Z,14.70
2022-12-12T15:16:51.023Z,16.07
2022-12-12T15:19:24.329Z,15.57
2022-12-12T15:21:52.901Z,14.10
2022-12-12T15:24:23.336Z,14.67
2022-12-12T15:26:55.437Z,15.50
2022-12-12T15:29:26.885Z,13.93
2022-12-12T15:32:00.552Z,16.10
2022-12-12T15:34:34.780Z,14.77
2022-12-12T15:37:24.868Z,14.67
2022-12-12T15:40:17.460Z,14.30
2022-12-12T15:42:51.235Z,14.43
2022-12-12T15:45:23.446Z,16.07
2022-12-12T15:47:54.238Z,15.73
2022-12-12T15:50:24.831Z,14.40
2022-12-12T15:53:02.512Z,15.87
2022-12-12T15:55:30.974Z,16.80
2022-12-12T15:58:00.434Z,17.10
2022-12-12T16:00:35.541Z,15.67
2022-12-12T16:03:07.378Z,14.20
2022-12-12T16:05:37.865Z,14.70
2022-12-12T16:08:32.071Z,15.13
2022-12-12T16:11:02.211Z,13.37
2022-12-12T16:13:38.708Z,13.67
2022-12-12T16:16:38.692Z,13.67
2022-12-12T16:19:17.795Z,14.13
2022-12-12T16:21:45.903Z,15.23
2022-12-12T16:24:22.771Z,13.97
2022-12-12T16:26:51.185Z,13.00
2022-12-12T16:29:20.539Z,14.70
2022-12-12T16:31:49.537Z,14.90
2022-12-12T16:34:17.842Z,12.73
2022-12-12T16:36:45.854Z,15.13
2022-12-12T16:39:13.955Z,13.73
2022-12-12T16:41:42.486Z,14.93
2022-12-12T16:44:10.496Z,13.13
2022-12-12T16:46:39.878Z,15.00
2022-12-12T16:49:15.097Z,14.00
2022-12-12T16:51:43.754Z,14.73
2022-12-12T16:54:16.827Z,14.77
2022-12-12T16:56:52.280Z,12.97
2022-12-12T16:59:20.372Z,14.67
2022-12-12T17:01:49.773Z,15.40
2022-12-12T17:04:23.496Z,15.30
2022-12-12T17:06:52.031Z,14.17
2022-12-12T17:09:22.366Z,13.10
2022-12-12T17:11:52.420Z,12.70
2022-12-12T17:14:24.596Z,14.83
2022-12-12T17:16:54.841Z,14.23
2022-12-12T17:19:23.416Z,12.83
2022-12-12T17:21:51.446Z,13.33
2022-12-12T17:24:19.512Z,13.50
2022-12-12T17:26:47.572Z,13.60
2022-12-12T17:29:15.630Z,13.77
2022-12-12T17:31:43.678Z,13.67
2022-12-12T17:34:13.071Z,13.70
2022-12-12T17:36:41.117Z,13.43
2022-12-12T17:39:09.163Z,13.47
2022-12-12T17:41:37.204Z,13.63
2022-12-12T17:44:05.551Z,14.70
2022-12-12T17:46:33.594Z,17.80
2022-12-12T17:49:03.203Z,15.00
2022-12-12T17:51:32.576Z,14.20
2022-12-12T17:54:00.973Z,14.60
2022-12-12T17:56:28.980Z,14.73
2022-12-12T17:58:57.558Z,14.40
2022-12-12T18:01:27.636Z,15.10
2022-12-12T18:03:56.558Z,14.60
2022-12-12T18:06:25.344Z,13.37
2022-12-12T18:08:55.496Z,13.70
2022-12-12T18:11:27.399Z,13.17
2022-12-12T18:13:57.606Z,13.77
2022-12-12T18:16:27.501Z,13.50
2022-12-12T18:18:57.541Z,16.10
2022-12-12T18:21:59.283Z,23.23
2022-12-12T18:24:19.877Z,20.87
2022-12-12T18:26:52.285Z,20.20
2022-12-12T18:29:20.389Z,21.53
2022-12-12T18:31:48.677Z,22.00
2022-12-12T18:34:16.745Z,24.90
2022-12-12T18:36:44.753Z,23.37
2022-12-12T18:39:13.033Z,22.00
2022-12-12T18:41:43.123Z,20.67
2022-12-12T18:44:14.423Z,19.70
2022-12-12T18:46:43.751Z,17.47
2022-12-12T18:49:15.003Z,15.77
2022-12-12T18:51:43.552Z,16.50
2022-12-12T18:54:15.233Z,14.27
2022-12-12T18:56:46.404Z,14.80
2022-12-12T18:59:15.269Z,15.43
2022-12-12T19:01:43.573Z,14.80
2022-12-12T19:04:17.510Z,15.70
2022-12-12T19:06:49.145Z,17.97
2022-12-12T19:09:19.197Z,17.87
2022-12-12T19:11:49.076Z,18.20
2022-12-12T19:14:18.133Z,16.70
2022-12-12T19:16:46.272Z,14.83
2022-12-12T19:19:14.951Z,14.10
2022-12-12T19:21:43.730Z,13.43
2022-12-12T19:24:12.987Z,15.00
2022-12-12T19:26:43.584Z,15.83
2022-12-12T19:29:16.010Z,13.93
2022-12-12T19:31:44.816Z,17.60
2022-12-12T19:34:14.684Z,17.87
2022-12-12T19:36:43.290Z,15.90
2022-12-12T19:39:13.158Z,15.93
2022-12-12T19:41:41.791Z,15.20
2022-12-12T19:44:12.865Z,13.50
2022-12-12T19:46:42.936Z,16.10
2022-12-12T19:49:13.855Z,17.10
2022-12-12T19:51:44.734Z,15.43
2022-12-12T19:54:15.548Z,14.00
2022-12-12T19:56:44.055Z,13.00
2022-12-12T19:59:14.903Z,16.17
2022-12-12T20:01:44.064Z,13.23
2022-12-12T20:04:16.961Z,13.23
2022-12-12T20:06:46.237Z,12.27
2022-12-12T20:09:16.191Z,12.30
2022-12-12T20:11:45.291Z,13.00
2022-12-12T20:14:16.990Z,13.10
2022-12-12T20:16:45.813Z,12.90
2022-12-12T20:19:14.893Z,12.50
2022-12-12T20:22:02.218Z,12.17
2022-12-12T20:24:32.515Z,12.37
2022-12-12T20:27:02.916Z,11.97
2022-12-12T20:29:32.340Z,12.30
2022-12-12T20:32:01.264Z,13.13
2022-12-12T20:34:29.910Z,15.27
2022-12-12T20:36:58.592Z,14.67
2022-12-12T20:39:26.727Z,14.63
2022-12-12T20:41:56.523Z,15.97
2022-12-12T20:44:25.613Z,14.17
2022-12-12T20:46:55.195Z,13.50
2022-12-12T20:49:24.667Z,13.43
2022-12-12T20:51:57.573Z,13.93
2022-12-12T20:54:27.296Z,14.53
2022-12-12T20:56:55.657Z,15.17
2022-12-12T20:59:24.085Z,13.40
2022-12-12T21:01:52.907Z,13.07
2022-12-12T21:04:22.470Z,13.67
2022-12-12T21:06:52.253Z,12.83
2022-12-12T21:09:25.385Z,13.23
2022-12-12T21:11:55.380Z,14.17
2022-12-12T21:14:24.136Z,11.97
2022-12-12T21:16:53.099Z,11.47
2022-12-12T21:19:23.463Z,13.50
2022-12-12T21:21:52.227Z,11.70
2022-12-12T21:24:21.341Z,11.03
2022-12-12T21:26:49.787Z,14.53
2022-12-12T21:29:18.293Z,14.73
2022-12-12T21:31:51.664Z,19.37
2022-12-12T21:34:23.285Z,12.97
2022-12-12T21:36:52.901Z,12.27
2022-12-12T21:39:22.847Z,13.17
2022-12-12T21:41:51.388Z,13.33
2022-12-12T21:44:19.907Z,12.37
2022-12-12T21:46:48.226Z,14.37
2022-12-12T21:49:27.320Z,14.87
2022-12-12T21:51:59.495Z,13.50
2022-12-12T21:54:29.912Z,12.37
2022-12-12T21:56:58.934Z,12.37
2022-12-12T21:59:27.657Z,11.87
2022-12-12T22:01:57.111Z,13.07
2022-12-12T22:04:25.406Z,14.97
2022-12-12T22:06:53.600Z,13.83
2022-12-12T22:09:23.055Z,15.30
2022-12-12T22:11:52.520Z,13.63
2022-12-12T22:14:31.869Z,14.50
2022-12-12T22:16:59.942Z,14.90
2022-12-12T22:19:28.201Z,16.70
2022-12-12T22:21:56.231Z,16.10
2022-12-12T22:24:26.371Z,16.93
2022-12-12T22:26:54.421Z,16.37
2022-12-12T22:29:22.515Z,14.70
2022-12-12T22:31:52.294Z,14.67
2022-12-12T22:34:23.140Z,13.30
2022-12-12T22:36:51.751Z,13.40
2022-12-12T22:39:23.218Z,12.80
2022-12-12T22:41:52.841Z,11.50
2022-12-12T22:44:22.541Z,12.10
2022-12-12T22:46:52.434Z,13.37
2022-12-12T22:49:25.526Z,12.13
2022-12-12T22:51:54.396Z,12.50
2022-12-12T22:54:22.661Z,13.10
2022-12-12T22:56:52.060Z,13.00
2022-12-12T22:59:20.204Z,13.30
2022-12-12T23:01:48.304Z,13.00
2022-12-12T23:04:16.650Z,12.30
2022-12-12T23:06:45.303Z,12.33
2022-12-12T23:09:15.541Z,11.37
2022-12-12T23:11:44.542Z,13.13
2022-12-12T23:14:16.108Z,11.43
2022-12-12T23:16:45.020Z,11.87
2022-12-12T23:19:15.886Z,11.90
2022-12-12T23:21:44.601Z,10.97
2022-12-12T23:24:13.206Z,11.10
2022-12-12T23:26:41.549Z,10.17
2022-12-12T23:29:12.686Z,11.37
2022-12-12T23:31:42.217Z,9.37
2022-12-12T23:34:16.241Z,10.40
2022-12-12T23:36:44.923Z,9.30
2022-12-12T23:39:13.950Z,10.33
2022-12-12T23:41:42.742Z,8.70
2022-12-12T23:44:14.034Z,9.67
2022-12-12T23:46:43.717Z,8.93
2022-12-12T23:49:16.792Z,9.80
2022-12-12T23:51:47.305Z,10.67
2022-12-12T23:54:18.265Z,10.27
2022-12-12T23:56:46.769Z,10.07
2022-12-12T23:59:18.173Z,8.87
